createdAt,value
2023-01-29T00:02:09.896Z,17.63
2023-01-29T00:04:36.831Z,17.02
2023-01-29T00:07:03.726Z,17.92
2023-01-29T00:09:31.940Z,17.23
2023-01-29T00:11:58.901Z,17.75
2023-01-29T00:14:27.499Z,18.42
2023-01-29T00:16:54.826Z,17.73
2023-01-29T00:19:21.699Z,19.10
2023-01-29T00:21:48.509Z,18.30
2023-01-29T00:24:15.401Z,19.00
2023-01-29T00:26:43.174Z,18.45
2023-01-29T00:29:10.349Z,18.40
2023-01-29T00:31:37.441Z,18.08
2023-01-29T00:34:04.439Z,18.20
2023-01-29T00:36:31.345Z,18.35
2023-01-29T00:39:00.588Z,17.17
2023-01-29T00:41:51.275Z,17.70
2023-01-29T00:44:37.074Z,17.75
2023-01-29T00:47:25.401Z,18.20
2023-01-29T00:49:52.586Z,19.58
2023-01-29T00:52:25.351Z,18.40
2023-01-29T00:54:53.605Z,18.95
2023-01-29T00:57:20.697Z,17.95
2023-01-29T00:59:47.802Z,18.58
2023-01-29T01:02:33.166Z,19.10
2023-01-29T01:05:02.443Z,22.77
2023-01-29T01:07:30.451Z,21.33
2023-01-29T01:10:16.522Z,19.98
2023-01-29T01:12:45.564Z,17.73
2023-01-29T01:15:12.727Z,18.77
2023-01-29T01:17:40.826Z,18.20
2023-01-29T01:20:09.287Z,16.33
2023-01-29T01:22:36.165Z,18.17
2023-01-29T01:25:03.505Z,18.50
2023-01-29T01:27:30.583Z,17.77
2023-01-29T01:29:57.444Z,17.02
2023-01-29T01:32:24.382Z,17.05
2023-01-29T01:34:52.406Z,17.27
2023-01-29T01:37:19.491Z,16.85
2023-01-29T01:39:48.977Z,17.05
2023-01-29T01:42:15.951Z,17.55
2023-01-29T01:44:57.005Z,16.60
2023-01-29T01:47:42.903Z,18.25
2023-01-29T01:50:22.041Z,17.83
2023-01-29T01:52:53.734Z,16.38
2023-01-29T01:55:26.331Z,18.23
2023-01-29T02:00:25.400Z,17.15
2023-01-29T02:03:11.159Z,16.83
2023-01-29T02:05:58.121Z,17.45
2023-01-29T02:09:05.555Z,17.73
2023-01-29T02:11:36.446Z,17.27
2023-01-29T02:14:03.614Z,17.65
2023-01-29T02:16:30.817Z,17.17
2023-01-29T02:18:57.754Z,17.15
2023-01-29T02:21:40.156Z,16.92
2023-01-29T02:24:48.805Z,17.25
2023-01-29T02:27:24.436Z,18.13
2023-01-29T02:30:09.328Z,18.33
2023-01-29T02:32:54.790Z,17.50
2023-01-29T02:36:00.897Z,17.50
2023-01-29T02:38:43.545Z,17.27
2023-01-29T02:41:24.084Z,17.58
2023-01-29T02:44:14.060Z,17.15
2023-01-29T02:47:02.374Z,17.63
2023-01-29T02:49:44.104Z,16.75
2023-01-29T02:52:19.745Z,17.35
2023-01-29T02:55:11.481Z,17.52
2023-01-29T02:57:43.303Z,17.30
2023-01-29T03:00:17.038Z,17.05
2023-01-29T03:03:15.556Z,17.35
2023-01-29T03:06:02.475Z,17.35
2023-01-29T03:08:43.297Z,17.52
2023-01-29T03:11:15.210Z,16.70
2023-01-29T03:13:55.095Z,16.98
2023-01-29T03:16:53.020Z,16.77
2023-01-29T03:19:29.507Z,17.50
2023-01-29T03:22:00.995Z,16.90
2023-01-29T03:25:17.130Z,19.23
2023-01-29T03:28:12.966Z,19.23
2023-01-29T03:31:14.737Z,18.60
2023-01-29T03:34:00.914Z,18.55
2023-01-29T03:36:45.214Z,17.58
2023-01-29T03:39:14.743Z,19.15
2023-01-29T03:41:57.968Z,19.70
2023-01-29T03:44:50.407Z,19.10
2023-01-29T03:48:03.423Z,19.80
2023-01-29T03:50:51.607Z,19.33
2023-01-29T03:53:28.862Z,17.95
2023-01-29T03:56:07.186Z,19.55
2023-01-29T03:58:43.420Z,20.02
2023-01-29T04:01:17.136Z,19.00
2023-01-29T04:03:52.847Z,19.55
2023-01-29T04:06:30.128Z,19.90
2023-01-29T04:09:22.134Z,20.95
2023-01-29T04:12:09.268Z,18.73
2023-01-29T04:14:39.473Z,18.92
2023-01-29T04:17:32.926Z,19.67
2023-01-29T04:20:10.502Z,19.65
2023-01-29T04:22:39.930Z,19.05
2023-01-29T04:25:19.418Z,19.58
2023-01-29T04:28:13.591Z,19.20
2023-01-29T04:30:50.741Z,20.75
2023-01-29T04:33:40.399Z,21.38
2023-01-29T04:36:26.052Z,19.95
2023-01-29T04:39:27.115Z,21.50
2023-01-29T04:42:05.371Z,21.15
2023-01-29T04:44:47.334Z,20.17
2023-01-29T04:47:57.872Z,18.98
2023-01-29T04:50:40.745Z,20.33
2023-01-29T04:53:43.407Z,18.95
2023-01-29T04:56:16.168Z,20.20
2023-01-29T04:58:55.461Z,21.67
2023-01-29T05:01:25.766Z,19.92
2023-01-29T05:03:55.222Z,22.10
2023-01-29T05:06:24.720Z,21.13
2023-01-29T05:08:52.299Z,21.52
2023-01-29T05:11:19.805Z,20.17
2023-01-29T05:13:48.850Z,21.85
2023-01-29T05:16:21.666Z,21.75
2023-01-29T05:18:48.706Z,20.55
2023-01-29T05:21:15.801Z,20.15
2023-01-29T05:23:53.226Z,20.27
2023-01-29T05:26:39.990Z,21.33
2023-01-29T05:29:06.923Z,20.67
2023-01-29T05:31:33.824Z,20.63
2023-01-29T05:34:00.722Z,20.92
2023-01-29T05:36:27.695Z,21.00
2023-01-29T05:38:54.598Z,19.63
2023-01-29T05:41:21.547Z,20.38
2023-01-29T05:43:48.429Z,19.77
2023-01-29T05:46:15.264Z,21.30
2023-01-29T05:48:42.173Z,20.90
2023-01-29T05:51:09.035Z,20.42
2023-01-29T05:53:36.038Z,19.38
2023-01-29T05:56:04.351Z,20.40
2023-01-29T05:58:32.434Z,19.60
2023-01-29T06:01:07.621Z,19.25
2023-01-29T06:03:34.465Z,20.20
2023-01-29T06:06:02.531Z,20.10
2023-01-29T06:08:29.353Z,20.23
2023-01-29T06:10:56.290Z,20.52
2023-01-29T06:13:23.791Z,19.95
2023-01-29T06:15:50.764Z,20.48
2023-01-29T06:18:17.849Z,18.83
2023-01-29T06:20:44.737Z,19.52
2023-01-29T06:23:11.609Z,19.98
2023-01-29T06:25:38.472Z,18.90
2023-01-29T06:28:05.300Z,19.05
2023-01-29T06:30:32.478Z,19.23
2023-01-29T06:33:01.574Z,18.90
2023-01-29T06:35:28.913Z,19.77
2023-01-29T06:37:56.829Z,18.40
2023-01-29T06:40:23.681Z,18.65
2023-01-29T06:42:50.516Z,18.65
2023-01-29T06:45:17.483Z,18.63
2023-01-29T06:47:44.356Z,18.67
2023-01-29T06:50:11.763Z,19.23
2023-01-29T06:52:38.653Z,19.38
2023-01-29T06:55:06.114Z,19.27
2023-01-29T06:57:32.997Z,19.13
2023-01-29T06:59:59.878Z,18.58
2023-01-29T07:02:26.842Z,18.95
2023-01-29T07:04:53.787Z,18.63
2023-01-29T07:07:20.665Z,18.48
2023-01-29T07:09:47.496Z,18.98
2023-01-29T07:12:14.411Z,18.35
2023-01-29T07:14:41.242Z,19.48
2023-01-29T07:17:08.127Z,19.10
2023-01-29T07:19:34.971Z,19.27
2023-01-29T07:22:03.268Z,19.40
2023-01-29T07:24:30.281Z,17.77
2023-01-29T07:26:57.323Z,19.13
2023-01-29T07:29:24.201Z,18.08
2023-01-29T07:31:51.260Z,17.85
2023-01-29T07:34:18.241Z,17.95
2023-01-29T07:36:45.211Z,19.25
2023-01-29T07:39:12.096Z,18.55
2023-01-29T07:41:39.038Z,17.58
2023-01-29T07:44:15.506Z,18.27
2023-01-29T07:46:42.477Z,19.05
2023-01-29T07:49:09.411Z,19.20
2023-01-29T07:51:36.281Z,17.80
2023-01-29T07:54:03.213Z,18.73
2023-01-29T07:56:30.185Z,18.60
2023-01-29T07:58:57.071Z,17.55
2023-01-29T08:01:23.995Z,17.35
2023-01-29T08:03:51.497Z,17.52
2023-01-29T08:06:19.270Z,17.13
2023-01-29T08:08:46.111Z,17.52
2023-01-29T08:11:13.095Z,17.70
2023-01-29T08:13:39.999Z,17.67
2023-01-29T08:16:07.549Z,17.88
2023-01-29T08:18:34.550Z,17.58
2023-01-29T08:21:01.941Z,17.83
2023-01-29T08:23:29.307Z,17.83
2023-01-29T08:25:56.376Z,16.35
2023-01-29T08:28:23.378Z,17.73
2023-01-29T08:30:50.217Z,17.15
2023-01-29T08:33:19.467Z,18.15
2023-01-29T08:35:51.809Z,17.27
2023-01-29T08:38:19.027Z,16.98
2023-01-29T08:40:46.067Z,17.23
2023-01-29T08:43:14.065Z,18.27
2023-01-29T08:45:43.112Z,16.98
2023-01-29T08:48:10.801Z,16.80
2023-01-29T08:50:38.154Z,16.75
2023-01-29T08:53:09.719Z,17.52
2023-01-29T08:55:38.488Z,17.40
2023-01-29T08:58:06.488Z,17.48
2023-01-29T09:00:34.745Z,16.13
2023-01-29T09:03:01.633Z,17.35
2023-01-29T09:05:29.353Z,16.30
2023-01-29T09:07:59.427Z,17.45
2023-01-29T09:10:26.448Z,16.80
2023-01-29T09:12:54.148Z,16.23
2023-01-29T09:15:20.980Z,17.08
2023-01-29T09:17:49.510Z,16.70
2023-01-29T09:20:16.909Z,16.95
2023-01-29T09:22:44.418Z,16.70
2023-01-29T09:25:11.549Z,16.60
2023-01-29T09:27:38.510Z,17.35
2023-01-29T09:30:06.644Z,16.77
2023-01-29T09:32:53.491Z,18.27
2023-01-29T09:35:22.577Z,17.92
2023-01-29T09:37:50.674Z,17.58
2023-01-29T09:40:41.771Z,16.75
2023-01-29T09:43:43.524Z,15.98
2023-01-29T09:46:25.725Z,15.88
2023-01-29T09:49:21.803Z,16.92
2023-01-29T09:51:52.764Z,17.48
2023-01-29T09:54:33.926Z,17.88
2023-01-29T09:57:01.252Z,16.63
2023-01-29T09:59:31.188Z,16.17
2023-01-29T10:02:16.818Z,16.90
2023-01-29T10:05:19.307Z,18.13
2023-01-29T10:08:13.669Z,19.42
2023-01-29T10:10:46.324Z,15.90
2023-01-29T10:13:24.477Z,19.38
2023-01-29T10:15:54.185Z,18.92
2023-01-29T10:18:36.040Z,16.45
2023-01-29T10:21:33.877Z,16.35
2023-01-29T10:24:19.193Z,18.25
2023-01-29T10:26:46.315Z,16.98
2023-01-29T10:29:18.556Z,17.95
2023-01-29T10:31:50.035Z,17.50
2023-01-29T10:34:45.647Z,17.08
2023-01-29T10:37:24.304Z,16.42
2023-01-29T10:39:51.416Z,17.30
2023-01-29T10:42:58.157Z,16.85
2023-01-29T10:46:08.091Z,15.73
2023-01-29T10:48:48.185Z,16.20
2023-01-29T10:51:36.651Z,17.10
2023-01-29T10:54:24.856Z,16.42
2023-01-29T10:57:14.973Z,15.15
2023-01-29T11:00:07.911Z,17.02
2023-01-29T11:02:34.884Z,17.55
2023-01-29T11:05:01.879Z,17.58
2023-01-29T11:07:29.911Z,18.52
2023-01-29T11:10:04.554Z,17.67
2023-01-29T11:12:33.459Z,18.33
2023-01-29T11:15:06.626Z,16.58
2023-01-29T11:17:33.674Z,17.83
2023-01-29T11:20:00.586Z,20.00
2023-01-29T11:22:30.681Z,18.65
2023-01-29T11:25:20.003Z,19.00
2023-01-29T11:28:06.149Z,18.98
2023-01-29T11:30:37.509Z,19.85
2023-01-29T11:33:20.268Z,19.80
2023-01-29T11:35:47.120Z,19.00
2023-01-29T11:38:16.993Z,20.33
2023-01-29T11:40:44.581Z,20.15
2023-01-29T11:43:20.463Z,21.38
2023-01-29T11:45:49.815Z,21.13
2023-01-29T11:48:19.726Z,20.48
2023-01-29T11:50:53.477Z,20.00
2023-01-29T11:53:43.230Z,20.90
2023-01-29T11:56:34.984Z,19.88
2023-01-29T11:59:04.553Z,20.67
2023-01-29T12:01:38.450Z,20.13
2023-01-29T12:04:21.744Z,21.52
2023-01-29T12:06:52.999Z,20.65
2023-01-29T12:09:27.298Z,20.98
2023-01-29T12:11:54.695Z,19.52
2023-01-29T12:14:33.379Z,20.98
2023-01-29T12:17:35.313Z,21.58
2023-01-29T12:20:16.125Z,21.23
2023-01-29T12:22:50.397Z,21.42
2023-01-29T12:25:34.332Z,20.48
2023-01-29T12:28:09.193Z,23.88
2023-01-29T12:31:04.416Z,23.15
2023-01-29T12:33:41.534Z,23.00
2023-01-29T12:36:26.571Z,24.23
2023-01-29T12:38:54.704Z,23.15
2023-01-29T12:41:28.453Z,24.55
2023-01-29T12:44:02.613Z,25.13
2023-01-29T12:46:34.637Z,23.45
2023-01-29T12:49:04.776Z,28.58
2023-01-29T12:51:38.814Z,23.15
2023-01-29T12:54:14.560Z,23.65
2023-01-29T12:56:48.677Z,21.83
2023-01-29T12:59:46.048Z,22.30
2023-01-29T13:02:19.111Z,21.98
2023-01-29T13:04:54.863Z,21.58
2023-01-29T13:07:40.778Z,20.80
2023-01-29T13:10:26.092Z,22.05
2023-01-29T13:13:00.936Z,24.15
2023-01-29T13:15:36.887Z,23.75
2023-01-29T13:18:21.178Z,23.50
2023-01-29T13:20:50.391Z,24.98
2023-01-29T13:23:23.238Z,25.13
2023-01-29T13:25:54.701Z,24.70
2023-01-29T13:28:25.464Z,20.27
2023-01-29T13:31:33.168Z,25.63
2023-01-29T13:34:00.125Z,23.02
2023-01-29T13:36:29.721Z,24.77
2023-01-29T13:39:02.930Z,23.85
2023-01-29T13:41:35.628Z,23.15
2023-01-29T13:44:05.053Z,24.88
2023-01-29T13:46:32.452Z,24.90
2023-01-29T13:49:04.802Z,22.42
2023-01-29T13:51:36.461Z,24.52
2023-01-29T13:54:07.898Z,23.92
2023-01-29T13:56:34.925Z,23.70
2023-01-29T13:59:03.698Z,22.35
2023-01-29T14:02:02.591Z,24.85
2023-01-29T14:04:32.616Z,22.92
2023-01-29T14:07:02.985Z,23.40
2023-01-29T14:09:38.992Z,22.95
2023-01-29T14:12:25.824Z,20.73
2023-01-29T14:14:56.616Z,22.00
2023-01-29T14:17:26.482Z,21.42
2023-01-29T14:20:01.246Z,23.13
2023-01-29T14:22:29.658Z,24.70
2023-01-29T14:25:05.477Z,23.38
2023-01-29T14:27:33.187Z,21.70
2023-01-29T14:30:02.675Z,22.60
2023-01-29T14:32:30.273Z,22.58
2023-01-29T14:35:02.214Z,23.02
2023-01-29T14:37:32.727Z,21.30
2023-01-29T14:40:14.216Z,22.63
2023-01-29T14:43:01.598Z,22.73
2023-01-29T14:45:31.362Z,23.52
2023-01-29T14:48:04.428Z,22.70
2023-01-29T14:50:34.877Z,22.15
2023-01-29T14:53:10.195Z,22.40
2023-01-29T14:56:03.057Z,21.48
2023-01-29T14:58:42.529Z,22.45
2023-01-29T15:01:30.529Z,21.88
2023-01-29T15:04:04.666Z,21.33
2023-01-29T15:06:47.325Z,21.63
2023-01-29T15:09:40.768Z,21.58
2023-01-29T15:12:18.987Z,22.58
2023-01-29T15:15:03.897Z,20.83
2023-01-29T15:17:49.424Z,21.83
2023-01-29T15:20:37.689Z,20.92
2023-01-29T15:23:23.633Z,21.15
2023-01-29T15:25:54.140Z,21.90
2023-01-29T15:28:22.011Z,22.02
2023-01-29T15:30:57.333Z,20.52
2023-01-29T15:33:24.941Z,21.55
2023-01-29T15:36:08.924Z,22.95
2023-01-29T15:38:36.085Z,20.85
2023-01-29T15:41:16.088Z,21.05
2023-01-29T15:43:48.878Z,19.58
2023-01-29T15:46:26.666Z,20.27
2023-01-29T15:48:55.930Z,19.95
2023-01-29T15:51:26.149Z,19.85
2023-01-29T15:54:03.591Z,22.30
2023-01-29T15:56:39.596Z,17.00
2023-01-29T15:59:13.311Z,19.85
2023-01-29T16:01:40.192Z,18.40
2023-01-29T16:04:13.475Z,19.27
2023-01-29T16:06:41.784Z,18.30
2023-01-29T16:09:12.432Z,18.75
2023-01-29T16:11:40.293Z,19.60
2023-01-29T16:14:07.973Z,17.95
2023-01-29T16:16:35.268Z,20.77
2023-01-29T16:19:13.089Z,20.75
2023-01-29T16:21:45.814Z,20.77
2023-01-29T16:24:15.959Z,22.80
2023-01-29T16:26:46.404Z,22.25
2023-01-29T16:29:16.214Z,23.65
2023-01-29T16:31:46.111Z,22.67
2023-01-29T16:34:42.460Z,22.98
2023-01-29T16:37:29.918Z,20.83
2023-01-29T16:39:57.212Z,24.67
2023-01-29T16:42:31.473Z,22.35
2023-01-29T16:45:28.639Z,20.42
2023-01-29T16:48:22.618Z,21.00
2023-01-29T16:50:55.118Z,22.58
2023-01-29T16:53:24.593Z,22.30
2023-01-29T16:55:52.612Z,22.33
2023-01-29T16:58:21.996Z,22.95
2023-01-29T17:01:26.632Z,23.25
2023-01-29T17:04:07.959Z,23.58
2023-01-29T17:06:35.461Z,23.27
2023-01-29T17:09:03.690Z,22.42
2023-01-29T17:11:53.874Z,23.40
2023-01-29T17:14:20.727Z,24.90
2023-01-29T17:17:03.730Z,22.40
2023-01-29T17:19:30.637Z,22.38
2023-01-29T17:21:59.019Z,24.38
2023-01-29T17:24:26.264Z,22.98
2023-01-29T17:26:53.896Z,20.77
2023-01-29T17:29:25.518Z,24.00
2023-01-29T17:31:52.484Z,22.38
2023-01-29T17:34:19.342Z,23.52
2023-01-29T17:36:46.334Z,21.05
2023-01-29T17:39:20.597Z,21.73
2023-01-29T17:41:53.468Z,23.75
2023-01-29T17:44:21.087Z,23.08
2023-01-29T17:46:48.709Z,22.75
2023-01-29T17:49:24.067Z,21.83
2023-01-29T17:51:52.099Z,19.77
2023-01-29T17:54:19.743Z,19.55
2023-01-29T17:56:47.082Z,22.95
2023-01-29T17:59:16.927Z,22.88
2023-01-29T18:01:44.891Z,22.30
2023-01-29T18:04:12.054Z,24.27
2023-01-29T18:06:41.213Z,23.00
2023-01-29T18:09:12.077Z,21.75
2023-01-29T18:11:39.034Z,22.80
2023-01-29T18:14:14.463Z,21.73
2023-01-29T18:16:43.161Z,21.13
2023-01-29T18:19:27.481Z,21.48
2023-01-29T18:21:54.597Z,24.77
2023-01-29T18:24:21.570Z,25.40
2023-01-29T18:26:51.250Z,22.75
2023-01-29T18:29:18.143Z,23.35
2023-01-29T18:31:47.440Z,21.67
2023-01-29T18:34:14.345Z,22.95
2023-01-29T18:36:46.578Z,22.35
2023-01-29T18:41:44.078Z,22.10
2023-01-29T18:44:11.220Z,21.73
2023-01-29T18:46:38.080Z,23.88
2023-01-29T18:49:05.278Z,19.27
2023-01-29T18:51:32.293Z,19.85
2023-01-29T18:53:59.186Z,23.33
2023-01-29T18:56:26.087Z,20.73
2023-01-29T18:58:56.451Z,18.65
2023-01-29T19:01:24.006Z,22.83
2023-01-29T19:03:51.006Z,22.33
2023-01-29T19:06:17.816Z,23.38
2023-01-29T19:08:44.870Z,21.48
2023-01-29T19:11:12.596Z,23.25
2023-01-29T19:13:40.513Z,20.63
2023-01-29T19:16:12.533Z,20.17
2023-01-29T19:18:39.653Z,24.17
2023-01-29T19:21:12.101Z,21.25
2023-01-29T19:23:40.193Z,20.02
2023-01-29T19:26:07.291Z,22.73
2023-01-29T19:28:34.213Z,24.85
2023-01-29T19:31:01.757Z,22.92
2023-01-29T19:33:28.860Z,20.85
2023-01-29T19:35:57.313Z,22.23
2023-01-29T19:38:24.394Z,22.70
2023-01-29T19:40:51.805Z,23.23
2023-01-29T19:43:19.063Z,22.50
2023-01-29T19:45:50.922Z,23.85
2023-01-29T19:48:21.409Z,24.73
2023-01-29T19:50:55.944Z,23.05
2023-01-29T19:53:23.079Z,23.25
2023-01-29T19:56:01.250Z,21.30
2023-01-29T19:58:28.859Z,23.10
2023-01-29T20:00:57.365Z,23.60
2023-01-29T20:03:24.740Z,23.98
2023-01-29T20:05:51.900Z,23.00
2023-01-29T20:08:19.069Z,22.67
2023-01-29T20:10:47.099Z,23.80
2023-01-29T20:13:15.812Z,23.42
2023-01-29T20:15:47.587Z,22.15
2023-01-29T20:18:15.443Z,18.55
2023-01-29T20:20:44.063Z,24.13
2023-01-29T20:23:12.033Z,23.58
2023-01-29T20:25:39.169Z,23.48
2023-01-29T20:28:08.159Z,23.73
2023-01-29T20:30:36.108Z,23.95
2023-01-29T20:33:03.862Z,22.92
2023-01-29T20:35:31.346Z,21.67
2023-01-29T20:37:58.357Z,23.23
2023-01-29T20:40:26.036Z,25.30
2023-01-29T20:42:53.737Z,25.25
2023-01-29T20:45:21.901Z,24.13
2023-01-29T20:47:49.621Z,24.52
2023-01-29T20:50:18.922Z,24.50
2023-01-29T20:52:46.239Z,25.75
2023-01-29T20:55:13.318Z,24.85
2023-01-29T20:57:40.523Z,24.80
2023-01-29T21:00:08.418Z,25.58
2023-01-29T21:02:35.513Z,25.05
2023-01-29T21:05:02.409Z,25.90
2023-01-29T21:07:29.252Z,25.00
2023-01-29T21:09:56.098Z,25.20
2023-01-29T21:12:23.025Z,26.52
2023-01-29T21:14:49.899Z,24.52
2023-01-29T21:17:16.758Z,27.15
2023-01-29T21:19:44.078Z,25.08
2023-01-29T21:22:10.928Z,26.38
2023-01-29T21:24:37.855Z,27.88
2023-01-29T21:27:04.705Z,26.25
2023-01-29T21:29:31.568Z,27.10
2023-01-29T21:31:58.490Z,25.65
2023-01-29T21:34:25.703Z,28.15
2023-01-29T21:36:52.626Z,25.25
2023-01-29T21:39:24.661Z,25.30
2023-01-29T21:42:11.023Z,26.25
2023-01-29T21:44:38.102Z,25.80
2023-01-29T21:47:14.942Z,24.67
2023-01-29T21:49:43.180Z,27.40
2023-01-29T21:52:11.807Z,25.13
2023-01-29T21:54:45.793Z,21.13
2023-01-29T21:57:15.321Z,25.42
2023-01-29T21:59:42.938Z,27.15
2023-01-29T22:02:16.125Z,26.73
2023-01-29T22:04:43.346Z,25.38
2023-01-29T22:07:13.868Z,26.70
2023-01-29T22:09:41.421Z,26.33
2023-01-29T22:12:09.228Z,24.80
2023-01-29T22:14:36.091Z,26.95
2023-01-29T22:17:03.171Z,28.02
2023-01-29T22:19:30.006Z,26.02
2023-01-29T22:21:57.060Z,27.67
2023-01-29T22:24:23.921Z,26.58
2023-01-29T22:26:50.806Z,26.70
2023-01-29T22:29:18.176Z,27.85
2023-01-29T22:31:45.276Z,25.20
2023-01-29T22:34:13.351Z,28.55
2023-01-29T22:36:40.482Z,27.30
2023-01-29T22:39:10.857Z,27.60
2023-01-29T22:41:37.747Z,27.70
2023-01-29T22:44:04.801Z,28.83
2023-01-29T22:46:31.767Z,25.38
2023-01-29T22:48:58.831Z,29.00
2023-01-29T22:51:25.814Z,28.02
2023-01-29T22:53:54.758Z,27.40
2023-01-29T22:56:25.342Z,28.48
2023-01-29T22:58:53.629Z,25.90
2023-01-29T23:01:22.328Z,30.20
2023-01-29T23:03:49.539Z,27.88
2023-01-29T23:06:17.455Z,24.77
2023-01-29T23:08:44.695Z,28.75
2023-01-29T23:11:15.784Z,30.17
2023-01-29T23:13:48.544Z,27.33
2023-01-29T23:16:16.879Z,26.92
2023-01-29T23:18:44.501Z,29.27
2023-01-29T23:21:12.719Z,23.08
2023-01-29T23:23:40.035Z,27.20
2023-01-29T23:26:26.425Z,23.73
2023-01-29T23:28:53.364Z,27.45
2023-01-29T23:31:20.347Z,24.83
2023-01-29T23:33:47.274Z,26.08
2023-01-29T23:36:14.177Z,27.10
2023-01-29T23:38:41.247Z,26.42
2023-01-29T23:41:08.145Z,25.13
2023-01-29T23:43:35.275Z,25.25
2023-01-29T23:46:02.201Z,23.80
2023-01-29T23:48:29.137Z,27.38
2023-01-29T23:50:56.098Z,19.80
2023-01-29T23:53:22.998Z,20.88
2023-01-29T23:56:04.286Z,15.68
2023-01-29T23:58:32.644Z,23.05
